Las Cruces, NM

7:53 PM MDT on July 27, 2016 (GMT -0600)
Alameda Southridge Village | | Change Station

Elev 4196 ft 32.32 °N, 106.73 °W | Updated 1 minute ago

Clear
Clear
87.8 °F
Feels Like 86 °F
N
5.8
Wind Variable Wind from South

Today
High -- | Low -- °F
--% Chance of Precip.
Yesterday
High -- | Low -- °F
Precip. -- in
Pressure 30.06 in
Visibility 10.0 miles
Clouds Clear
Heat Index 86 °F
Dew Point 57 °F
Humidity 35%
Rainfall 0.07 in
Snow Depth Not available.
6:18 AM 8:07 PM
Last Quarter, 37% visible
METAR KLRU 280135Z AUTO 13009KT 10SM CLR 30/12 A3006 RMK AO2 T02980116
Pressure 30.06 in
Visibility 10.0 miles
Clouds Clear
Heat Index 86 °F
Dew Point 57 °F
Humidity 35%
Rainfall 0.07 in
Snow Depth Not available.
6:18 AM 8:07 PM
Last Quarter, 37% visible
METAR KLRU 280135Z AUTO 13009KT 10SM CLR 30/12 A3006 RMK AO2 T02980116

10-Day Weather Forecast

Almanac

Astronomy

Jul. 27, 2016 Rise Set
Actual Time
Civil Twilight
Nautical Twilight
Astronomical Twilight
Moon
Length of Visible Light
Length of Day
Tomorrow will be .
, % of the Moon is Illuminated

Today's Extremes

State Highs State Lows

Community

WunderPhotos

Upload Photos

1,928,005 photos uploaded!

WunderBlog® & News

Nearby

Air Quality

  Air Quality AQ Index Pollutant
Not available.

Snow Depth

Station Depth Elevation

Earthquake Activity

City Distance Mag. Time & Date
Minimum magnitude displayed is 2.5.

Coastal Water Temperatures

Place Temperature

Stations

Nearby Weather Stations

Station Location Temp. Windchill Dew Point Humidity Wind Precip. Elev Updated Type
                   

Watches & Warnings

There are currently no watches in effect.